createdAt,value
2023-09-22T00:03:55.307Z,13.6
2023-09-22T00:13:55.279Z,13.6
2023-09-22T00:23:55.256Z,13.5
2023-09-22T00:33:55.229Z,13.5
2023-09-22T00:43:55.190Z,13.4
2023-09-22T00:53:55.152Z,13.3
2023-09-22T01:03:55.134Z,13
2023-09-22T01:13:55.108Z,12.7
2023-09-22T01:23:55.079Z,12.4
2023-09-22T01:33:55.047Z,12.1
2023-09-22T01:43:55.003Z,12.1
2023-09-22T01:53:55.007Z,12
2023-09-22T02:03:54.949Z,12
2023-09-22T02:13:54.916Z,11.9
2023-09-22T02:23:54.904Z,11.6
2023-09-22T02:33:54.848Z,11.2
2023-09-22T02:43:54.822Z,11.1
2023-09-22T02:53:54.792Z,11.2
2023-09-22T03:03:54.760Z,11.2
2023-09-22T03:13:54.750Z,11.3
2023-09-22T03:23:54.703Z,11.3
2023-09-22T03:33:54.689Z,11.2
2023-09-22T03:43:54.656Z,11.3
2023-09-22T03:53:54.621Z,11.4
2023-09-22T04:03:54.603Z,11.7
2023-09-22T04:13:54.638Z,11.9
2023-09-22T04:23:54.528Z,12.1
2023-09-22T04:33:54.513Z,12.2
2023-09-22T04:43:54.476Z,12.3
2023-09-22T04:53:54.450Z,12.4
2023-09-22T05:03:54.429Z,12.4
2023-09-22T05:13:54.384Z,12.5
2023-09-22T05:23:54.333Z,12.4
2023-09-22T05:33:54.322Z,12.3
2023-09-22T05:43:54.281Z,12.1
2023-09-22T05:53:54.249Z,12
2023-09-22T06:03:54.245Z,12
2023-09-22T06:13:54.201Z,12
2023-09-22T06:23:54.201Z,12
2023-09-22T06:33:54.145Z,12.3
2023-09-22T06:43:54.134Z,12.5
2023-09-22T06:53:54.077Z,12.9
2023-09-22T07:03:54.054Z,13.1
2023-09-22T07:13:54.022Z,13.4
2023-09-22T07:23:53.994Z,13.5
2023-09-22T07:33:53.945Z,13.5
2023-09-22T07:43:53.933Z,13.6
2023-09-22T07:53:53.891Z,13.7
2023-09-22T08:03:53.855Z,13.9
2023-09-22T08:13:54.033Z,14
2023-09-22T08:23:53.796Z,14.4
2023-09-22T08:33:53.765Z,14.8
2023-09-22T08:43:53.750Z,15.1
2023-09-22T08:53:53.711Z,15.5
2023-09-22T09:03:53.673Z,15.9
2023-09-22T09:13:53.683Z,16.3
2023-09-22T09:23:53.620Z,16.4
2023-09-22T09:33:53.586Z,16.5
2023-09-22T09:43:53.559Z,16.5
2023-09-22T09:53:53.633Z,16.7
2023-09-22T10:03:53.509Z,17.2
2023-09-22T10:13:53.456Z,17.4
2023-09-22T10:23:53.416Z,17.5
2023-09-22T10:33:53.437Z,17.4
2023-09-22T10:43:53.361Z,17.4
2023-09-22T10:53:53.526Z,17.3
2023-09-22T11:03:53.542Z,17.7
2023-09-22T11:13:53.520Z,18
2023-09-22T11:23:53.505Z,17.9
2023-09-22T11:33:53.405Z,17.8
2023-09-22T11:43:53.151Z,17.9
2023-09-22T11:53:53.472Z,18.3
2023-09-22T12:03:53.101Z,18.1
2023-09-22T12:13:53.268Z,18.3
2023-09-22T12:23:53.329Z,18.4
2023-09-22T12:33:53.225Z,18.9
2023-09-22T12:43:53.172Z,19.2
2023-09-22T12:53:52.932Z,19.1
2023-09-22T13:03:53.168Z,19.4
2023-09-22T13:13:52.858Z,19.5
2023-09-22T13:23:53.063Z,19.5
2023-09-22T13:33:52.982Z,19.2
2023-09-22T13:43:52.990Z,18.8
2023-09-22T13:53:52.925Z,19.2
2023-09-22T14:03:52.810Z,19
2023-09-22T14:13:52.984Z,18.9
2023-09-22T14:23:52.825Z,19
2023-09-22T14:33:52.623Z,19.1
2023-09-22T14:43:52.775Z,18.9
2023-09-22T14:53:52.588Z,18.9
2023-09-22T15:03:52.720Z,18.5
2023-09-22T15:13:52.552Z,18.3
2023-09-22T15:23:52.645Z,18.1
2023-09-22T15:33:52.634Z,17
2023-09-22T15:43:52.478Z,16
2023-09-22T15:53:52.712Z,15.1
2023-09-22T16:03:52.580Z,14.5
2023-09-22T16:13:52.573Z,14
2023-09-22T16:23:52.251Z,13.9
2023-09-22T16:33:52.567Z,13.7
2023-09-22T16:43:52.533Z,13.6
2023-09-22T16:53:52.433Z,13.7
2023-09-22T17:03:52.480Z,14.1
2023-09-22T17:13:52.477Z,13.9
2023-09-22T17:23:52.329Z,13.7
2023-09-22T17:33:52.020Z,13.6
2023-09-22T17:43:51.999Z,13.5
2023-09-22T17:53:52.339Z,13.3
2023-09-22T18:03:52.365Z,13
2023-09-22T18:13:52.100Z,12.8
2023-09-22T18:23:52.182Z,12.5
2023-09-22T18:33:52.000Z,12.3
2023-09-22T18:43:51.806Z,12.2
2023-09-22T18:53:52.104Z,12.4
2023-09-22T19:03:52.071Z,12.4
2023-09-22T19:13:52.031Z,12.4
2023-09-22T19:23:51.676Z,12.5
2023-09-22T19:33:52.051Z,12.5
2023-09-22T19:43:52.030Z,12.6
2023-09-22T19:53:51.779Z,12.7
2023-09-22T20:03:51.672Z,12.8
2023-09-22T20:13:51.757Z,12.8
2023-09-22T20:23:51.498Z,12.9
2023-09-22T20:33:51.693Z,12.8
2023-09-22T20:43:51.654Z,12.7
2023-09-22T20:53:51.755Z,12.6
2023-09-22T21:03:51.703Z,12.5
2023-09-22T21:13:51.472Z,12.4
2023-09-22T21:23:51.680Z,12.3
2023-09-22T21:33:51.602Z,12.1
2023-09-22T21:43:51.564Z,12
2023-09-22T21:53:51.558Z,12
2023-09-22T22:03:51.321Z,12
2023-09-22T22:13:51.374Z,12.1
2023-09-22T22:23:51.449Z,12.1
2023-09-22T22:33:51.411Z,12.2
2023-09-22T22:43:51.229Z,12.2
2023-09-22T22:53:51.160Z,11.9
2023-09-22T23:03:51.422Z,11.4
2023-09-22T23:13:51.090Z,11.4
2023-09-22T23:23:51.311Z,11.5
2023-09-22T23:33:51.263Z,11.6
2023-09-22T23:43:51.232Z,11.7
2023-09-22T23:53:51.179Z,11.8
